Eagle River, Alaska
Current Conditions -  °F | °C
As of 6:56 PM on Tuesday 25 Nov 2014 (Local Time) from PABV Reporting Station
Overcast Overcast  
Wind Chill: 25°   Ceiling: 3000
Heat Index: 30°   Visibility: 10mi
Dew Point: 30°   Wind: 5mph
Humidity: 100%   Direction: 50°NE
Pressure: 30.28"   Gusts: NA
Location:  61.32°N, 149.58°W
Report Text: PABV 260356Z AUTO 05004KT 10SM OVC030 M01/M01 A3028 RMK AO1
Loading
Personal Weather Stations






























Interactive Weather Map New forecast layout! Learn more

10-Day Weather Forecast

Advertisements
Track Severe Weather on mobile